Time;durP1;ratioP1;P1;durP2;ratioP2;P2;SDS_P1;SDS_P2;PMS_P1;PMS_P2;Temp;Humidity;BMP_temperature;BMP_pressure;BME280_temperature;BME280_humidity;BME280_pressure;Samples;Min_cycle;Max_cycle;Signal;HPM_P1;HPM_P2
2022/07/09 00:00:48;;;;;;;2.15;1.80;;;;;;;;;;4490361;28;20018;-72
2022/07/09 00:02:59;;;;;;;2.58;1.92;;;;;;;;;;4508255;28;20583;-73
2022/07/09 00:05:10;;;;;;;2.42;2.00;;;;;;;;;;4508967;28;20042;-73
2022/07/09 00:07:20;;;;;;;2.10;1.90;;;;;;;;;;4508140;28;20057;-73
2022/07/09 00:09:31;;;;;;;1.95;1.70;;;;;;;;;;4499898;28;20637;-73
2022/07/09 00:11:41;;;;;;;2.47;1.90;;;;;;;;;;4488951;28;20034;-72
2022/07/09 00:13:52;;;;;;;2.28;2.08;;;;;;;;;;4508350;28;20137;-72
2022/07/09 00:16:02;;;;;;;1.77;1.67;;;;;;;;;;4505780;28;20244;-72
2022/07/09 00:18:13;;;;;;;2.00;1.80;;;;;;;;;;4507543;28;20421;-73
2022/07/09 00:20:23;;;;;;;1.85;1.40;;;;;;;;;;4488222;28;20026;-72
2022/07/09 00:22:34;;;;;;;2.30;1.70;;;;;;;;;;4508143;28;20042;-72
2022/07/09 00:24:44;;;;;;;2.70;1.80;;;;;;;;;;4507051;28;20030;-72
2022/07/09 00:26:55;;;;;;;2.25;1.70;;;;;;;;;;4499566;28;20033;-72
2022/07/09 00:29:05;;;;;;;2.17;1.90;;;;;;;;;;4508864;28;20044;-72
2022/07/09 00:31:16;;;;;;;2.05;1.85;;;;;;;;;;4489447;28;20200;-73
2022/07/09 00:33:26;;;;;;;2.28;1.85;;;;;;;;;;4507123;28;20034;-72
2022/07/09 00:35:37;;;;;;;2.75;1.88;;;;;;;;;;4507362;28;20140;-72
2022/07/09 00:37:47;;;;;;;2.30;2.00;;;;;;;;;;4490134;28;20035;-74
2022/07/09 00:39:58;;;;;;;2.33;2.00;;;;;;;;;;4491567;28;20030;-73
2022/07/09 00:42:09;;;;;;;3.65;2.40;;;;;;;;;;4506724;28;20033;-73
2022/07/09 00:44:20;;;;;;;3.22;2.00;;;;;;;;;;4507360;28;20820;-73
2022/07/09 00:46:30;;;;;;;2.33;2.13;;;;;;;;;;4478347;28;20109;-73
2022/07/09 00:48:41;;;;;;;2.08;1.88;;;;;;;;;;4507103;28;20021;-73
2022/07/09 00:50:52;;;;;;;2.30;2.10;;;;;;;;;;4490164;28;20034;-73
2022/07/09 00:53:02;;;;;;;2.50;2.30;;;;;;;;;;4491239;28;20045;-73
2022/07/09 00:55:13;;;;;;;2.55;1.90;;;;;;;;;;4508042;28;20077;-73
2022/07/09 00:57:23;;;;;;;2.50;2.17;;;;;;;;;;4489096;28;20034;-73
2022/07/09 00:59:35;;;;;;;3.20;2.00;;;;;;;;;;4489688;28;20045;-73
2022/07/09 01:01:46;;;;;;;2.28;1.90;;;;;;;;;;4488775;28;20035;-73
2022/07/09 01:03:56;;;;;;;2.20;2.00;;;;;;;;;;4493027;28;20503;-73
2022/07/09 01:06:07;;;;;;;2.38;2.13;;;;;;;;;;4508286;28;20037;-73
2022/07/09 01:08:17;;;;;;;2.45;2.15;;;;;;;;;;4488609;28;20050;-73
2022/07/09 01:10:28;;;;;;;2.63;2.15;;;;;;;;;;4505915;28;20037;-73
2022/07/09 01:12:38;;;;;;;2.75;2.08;;;;;;;;;;4496256;28;20370;-74
2022/07/09 01:14:49;;;;;;;2.63;1.90;;;;;;;;;;4489052;28;20030;-73
2022/07/09 01:17:01;;;;;;;3.33;2.35;;;;;;;;;;4505775;28;20029;-73
2022/07/09 01:19:11;;;;;;;3.30;2.40;;;;;;;;;;4488866;28;20600;-73
2022/07/09 01:21:22;;;;;;;2.28;2.08;;;;;;;;;;4507408;28;20055;-74
2022/07/09 01:23:32;;;;;;;2.45;2.13;;;;;;;;;;4506032;28;20133;-73
2022/07/09 01:25:46;;;;;;;2.22;1.92;;;;;;;;;;4507821;28;20049;-73
2022/07/09 01:27:56;;;;;;;2.30;2.10;;;;;;;;;;4506643;28;21408;-73
2022/07/09 01:30:07;;;;;;;2.72;2.33;;;;;;;;;;4488951;28;20034;-73
2022/07/09 01:32:17;;;;;;;2.22;2.03;;;;;;;;;;4507011;28;20037;-74
2022/07/09 01:34:28;;;;;;;2.30;2.10;;;;;;;;;;4508079;28;20133;-73
2022/07/09 01:36:38;;;;;;;2.55;2.35;;;;;;;;;;4506311;28;20046;-73
2022/07/09 01:38:49;;;;;;;2.90;2.35;;;;;;;;;;4508059;28;20057;-73
2022/07/09 01:40:59;;;;;;;3.38;2.35;;;;;;;;;;4506743;28;20091;-73
2022/07/09 01:43:10;;;;;;;2.97;2.40;;;;;;;;;;4507201;28;20030;-73
2022/07/09 01:45:20;;;;;;;2.50;2.30;;;;;;;;;;4507952;28;21071;-73
2022/07/09 01:47:31;;;;;;;2.78;2.13;;;;;;;;;;4466741;28;20038;-73
2022/07/09 01:49:42;;;;;;;2.97;2.40;;;;;;;;;;4505292;28;20037;-72
2022/07/09 01:51:52;;;;;;;2.83;2.58;;;;;;;;;;4507430;28;20044;-74
2022/07/09 01:54:03;;;;;;;2.90;2.10;;;;;;;;;;4507745;28;20558;-73
2022/07/09 01:56:13;;;;;;;3.33;2.20;;;;;;;;;;4491429;28;20046;-73
2022/07/09 01:58:24;;;;;;;3.13;2.40;;;;;;;;;;4491799;28;20234;-74
2022/07/09 02:00:34;;;;;;;2.72;2.30;;;;;;;;;;4506634;28;20144;-74
2022/07/09 02:02:45;;;;;;;3.63;2.40;;;;;;;;;;4497209;28;20117;-73
2022/07/09 02:04:55;;;;;;;3.95;2.50;;;;;;;;;;4491695;28;20030;-73
2022/07/09 02:07:06;;;;;;;3.20;2.60;;;;;;;;;;4497051;28;20161;-73
2022/07/09 02:09:17;;;;;;;3.20;2.47;;;;;;;;;;4496608;28;20581;-73
2022/07/09 02:11:27;;;;;;;3.38;2.50;;;;;;;;;;4486972;28;20042;-73
2022/07/09 02:13:38;;;;;;;2.65;2.35;;;;;;;;;;4491639;28;20038;-73
2022/07/09 02:15:48;;;;;;;2.78;2.50;;;;;;;;;;4505990;28;20041;-73
2022/07/09 02:17:59;;;;;;;3.15;2.40;;;;;;;;;;4505848;28;20037;-73
2022/07/09 02:20:11;;;;;;;3.13;2.63;;;;;;;;;;4492195;28;20076;-73
2022/07/09 02:22:22;;;;;;;3.53;2.80;;;;;;;;;;4506099;28;20333;-73
2022/07/09 02:24:32;;;;;;;2.90;2.60;;;;;;;;;;4488919;28;20041;-73
2022/07/09 02:26:43;;;;;;;3.15;2.58;;;;;;;;;;4505336;28;20506;-73
2022/07/09 02:28:54;;;;;;;2.80;2.60;;;;;;;;;;4506128;28;20038;-73
2022/07/09 02:31:05;;;;;;;2.85;2.50;;;;;;;;;;4505594;28;20042;-73
2022/07/09 02:33:15;;;;;;;3.28;2.58;;;;;;;;;;4506020;28;20033;-73
2022/07/09 02:35:26;;;;;;;2.58;2.35;;;;;;;;;;4506785;28;20038;-73
2022/07/09 02:37:36;;;;;;;2.97;2.67;;;;;;;;;;4509594;28;20038;-73
2022/07/09 02:39:47;;;;;;;3.15;2.60;;;;;;;;;;4508095;28;20025;-73
2022/07/09 02:41:58;;;;;;;3.08;2.60;;;;;;;;;;4509102;28;20030;-73
2022/07/09 02:44:08;;;;;;;2.78;2.58;;;;;;;;;;4509026;28;20064;-73
2022/07/09 02:46:18;;;;;;;3.20;2.90;;;;;;;;;;4508228;28;20030;-74
2022/07/09 02:48:29;;;;;;;3.28;2.88;;;;;;;;;;4509818;28;20025;-73
2022/07/09 02:50:39;;;;;;;3.03;2.60;;;;;;;;;;4508793;28;20042;-72
2022/07/09 02:52:50;;;;;;;3.28;2.70;;;;;;;;;;4510028;28;20115;-73
2022/07/09 02:55:00;;;;;;;3.47;2.58;;;;;;;;;;4481828;28;29159;-73
2022/07/09 02:57:12;;;;;;;3.33;2.75;;;;;;;;;;4509121;28;20033;-73
2022/07/09 02:59:22;;;;;;;3.72;2.78;;;;;;;;;;4492691;28;20725;-72
2022/07/09 03:01:32;;;;;;;3.50;2.72;;;;;;;;;;4507741;28;20117;-73
2022/07/09 03:03:43;;;;;;;3.60;2.53;;;;;;;;;;4509268;28;20058;-73
2022/07/09 03:05:53;;;;;;;3.47;2.58;;;;;;;;;;4490474;28;20549;-72
2022/07/09 03:08:05;;;;;;;3.25;2.80;;;;;;;;;;4509255;28;20042;-73
2022/07/09 03:10:15;;;;;;;3.08;2.67;;;;;;;;;;4501190;28;20021;-73
2022/07/09 03:12:26;;;;;;;2.83;2.60;;;;;;;;;;4495316;28;20042;-72
2022/07/09 03:14:36;;;;;;;3.17;2.53;;;;;;;;;;4508142;28;20428;-72
2022/07/09 03:16:47;;;;;;;3.38;2.70;;;;;;;;;;4492555;28;20134;-72
2022/07/09 03:18:57;;;;;;;3.53;2.80;;;;;;;;;;4499454;28;20041;-72
2022/07/09 03:21:11;;;;;;;3.13;2.50;;;;;;;;;;4507848;28;20060;-72
2022/07/09 03:23:22;;;;;;;3.45;3.00;;;;;;;;;;4490414;28;20043;-73
2022/07/09 03:25:33;;;;;;;3.65;2.80;;;;;;;;;;4490619;28;20612;-72
2022/07/09 03:27:44;;;;;;;3.00;2.63;;;;;;;;;;4491174;28;20037;-72
2022/07/09 03:29:54;;;;;;;4.18;2.60;;;;;;;;;;4507658;28;20041;-72
2022/07/09 03:32:06;;;;;;;3.67;2.65;;;;;;;;;;4508966;28;20053;-72
2022/07/09 03:34:16;;;;;;;3.67;2.60;;;;;;;;;;4509044;28;20845;-72
2022/07/09 03:36:27;;;;;;;3.65;2.90;;;;;;;;;;4508672;28;20034;-72
2022/07/09 03:38:37;;;;;;;3.03;2.50;;;;;;;;;;4508823;28;20045;-72
2022/07/09 03:40:48;;;;;;;4.32;2.67;;;;;;;;;;4508927;28;20022;-72
2022/07/09 03:42:58;;;;;;;3.03;2.72;;;;;;;;;;4508591;28;20045;-73
2022/07/09 03:45:09;;;;;;;3.22;2.65;;;;;;;;;;4490391;28;20034;-72
2022/07/09 03:47:20;;;;;;;3.13;2.80;;;;;;;;;;4507738;28;20289;-73
2022/07/09 03:49:30;;;;;;;2.83;2.40;;;;;;;;;;4493969;28;20041;-72
2022/07/09 03:51:42;;;;;;;3.53;2.90;;;;;;;;;;4488934;28;20469;-73
2022/07/09 03:53:52;;;;;;;3.38;2.70;;;;;;;;;;4490485;28;20606;-73
2022/07/09 03:56:03;;;;;;;3.53;2.80;;;;;;;;;;4508618;28;20630;-73
2022/07/09 03:58:14;;;;;;;3.38;2.90;;;;;;;;;;4508861;28;20029;-72
2022/07/09 04:00:25;;;;;;;3.13;2.83;;;;;;;;;;4508747;28;20063;-73
2022/07/09 04:02:35;;;;;;;2.45;2.22;;;;;;;;;;4508415;28;20092;-73
2022/07/09 04:04:46;;;;;;;3.50;2.83;;;;;;;;;;4508017;28;20338;-73
2022/07/09 04:06:56;;;;;;;3.63;2.88;;;;;;;;;;4508189;28;20595;-73
2022/07/09 04:09:07;;;;;;;3.30;3.00;;;;;;;;;;4491125;28;20018;-73
2022/07/09 04:11:17;;;;;;;3.42;3.00;;;;;;;;;;4508476;28;20038;-73
2022/07/09 04:13:28;;;;;;;4.40;3.20;;;;;;;;;;4508682;28;20038;-73
2022/07/09 04:15:38;;;;;;;3.22;2.80;;;;;;;;;;4508673;28;20222;-73
2022/07/09 04:17:48;;;;;;;3.13;2.60;;;;;;;;;;4491390;28;20044;-73
2022/07/09 04:19:59;;;;;;;3.42;2.90;;;;;;;;;;4507608;28;20826;-73
2022/07/09 04:22:09;;;;;;;3.28;2.97;;;;;;;;;;4495452;28;20045;-72
2022/07/09 04:24:20;;;;;;;3.55;2.75;;;;;;;;;;4508419;28;20037;-72
2022/07/09 04:26:30;;;;;;;3.35;2.92;;;;;;;;;;4489925;28;20034;-72
2022/07/09 04:28:41;;;;;;;3.63;2.78;;;;;;;;;;4495552;28;20529;-73
2022/07/09 04:30:51;;;;;;;3.22;2.92;;;;;;;;;;4507209;28;20030;-72
2022/07/09 04:33:02;;;;;;;3.03;2.60;;;;;;;;;;4506643;28;20030;-73
2022/07/09 04:35:12;;;;;;;3.65;2.67;;;;;;;;;;4506635;28;20041;-72
2022/07/09 04:37:23;;;;;;;3.67;3.20;;;;;;;;;;4506777;28;20060;-72
2022/07/09 04:39:33;;;;;;;3.63;3.17;;;;;;;;;;4508220;28;20498;-73
2022/07/09 04:41:44;;;;;;;3.55;2.88;;;;;;;;;;4506900;28;20045;-72
2022/07/09 04:43:54;;;;;;;4.10;3.10;;;;;;;;;;4507980;28;20156;-72
2022/07/09 04:46:05;;;;;;;3.17;2.80;;;;;;;;;;4507741;28;20038;-72
2022/07/09 04:48:15;;;;;;;3.65;2.90;;;;;;;;;;4490070;28;20066;-72
2022/07/09 04:50:26;;;;;;;4.13;2.78;;;;;;;;;;4507787;28;20935;-73
2022/07/09 04:52:38;;;;;;;2.90;2.53;;;;;;;;;;4507071;28;20033;-72
2022/07/09 04:54:48;;;;;;;3.65;2.90;;;;;;;;;;4499250;28;20038;-73
2022/07/09 04:56:59;;;;;;;3.97;2.80;;;;;;;;;;4488865;28;20030;-73
2022/07/09 04:59:09;;;;;;;3.90;2.90;;;;;;;;;;4506245;28;20401;-72
2022/07/09 05:01:21;;;;;;;3.78;2.90;;;;;;;;;;4492332;28;20081;-73
2022/07/09 05:03:31;;;;;;;3.65;2.70;;;;;;;;;;4493902;28;21015;-72
2022/07/09 05:05:43;;;;;;;3.72;3.05;;;;;;;;;;4508442;28;20042;-72
2022/07/09 05:07:53;;;;;;;3.95;3.10;;;;;;;;;;4508211;28;20565;-72
2022/07/09 05:10:04;;;;;;;3.92;3.20;;;;;;;;;;4507757;28;20037;-72
2022/07/09 05:12:14;;;;;;;3.75;3.10;;;;;;;;;;4507899;28;20041;-72
2022/07/09 05:14:25;;;;;;;3.45;2.63;;;;;;;;;;4509325;28;20022;-72
2022/07/09 05:16:35;;;;;;;3.80;3.30;;;;;;;;;;4508084;28;20620;-73
2022/07/09 05:18:46;;;;;;;3.67;3.22;;;;;;;;;;4477331;28;20713;-72
2022/07/09 05:20:57;;;;;;;4.53;3.30;;;;;;;;;;4494931;28;20062;-72
2022/07/09 05:23:07;;;;;;;3.97;3.15;;;;;;;;;;4507627;28;20132;-73
2022/07/09 05:25:18;;;;;;;3.38;2.67;;;;;;;;;;4492070;28;20037;-64
2022/07/09 05:27:28;;;;;;;3.85;3.15;;;;;;;;;;4505672;28;20046;-64
2022/07/09 05:29:39;;;;;;;2.63;2.38;;;;;;;;;;4488107;28;20072;-66
2022/07/09 05:31:50;;;;;;;2.88;2.40;;;;;;;;;;4473830;28;20034;-64
2022/07/09 05:34:00;;;;;;;2.20;1.70;;;;;;;;;;4506412;28;20068;-64
2022/07/09 05:36:11;;;;;;;3.60;2.70;;;;;;;;;;4487504;28;20369;-64
2022/07/09 05:38:21;;;;;;;3.53;2.90;;;;;;;;;;4488950;28;20042;-64
2022/07/09 05:40:32;;;;;;;4.13;2.55;;;;;;;;;;4506658;28;20034;-64
2022/07/09 05:42:42;;;;;;;3.83;2.40;;;;;;;;;;4506174;28;20045;-64
2022/07/09 05:44:52;;;;;;;3.60;2.63;;;;;;;;;;4505644;28;20025;-64
2022/07/09 05:47:03;;;;;;;3.58;3.03;;;;;;;;;;4506769;28;20076;-64
2022/07/09 05:49:13;;;;;;;2.88;2.10;;;;;;;;;;4488905;28;20073;-64
2022/07/09 05:51:24;;;;;;;3.08;2.50;;;;;;;;;;4503289;28;21059;-64
2022/07/09 05:53:34;;;;;;;3.75;2.72;;;;;;;;;;4507500;28;20037;-64
2022/07/09 05:55:46;;;;;;;4.05;2.65;;;;;;;;;;4505789;28;25106;-63
2022/07/09 05:57:57;;;;;;;4.10;2.80;;;;;;;;;;4505342;28;21096;-63
2022/07/09 06:00:08;;;;;;;2.72;1.77;;;;;;;;;;4505730;28;20036;-63
2022/07/09 06:02:19;;;;;;;2.70;2.10;;;;;;;;;;4504665;28;20034;-63
2022/07/09 06:04:29;;;;;;;3.55;2.40;;;;;;;;;;4488845;28;20062;-63
2022/07/09 06:06:40;;;;;;;2.30;2.10;;;;;;;;;;4506352;28;20033;-63
2022/07/09 06:08:50;;;;;;;2.40;2.00;;;;;;;;;;4506263;28;20032;-63
2022/07/09 06:11:02;;;;;;;2.97;1.80;;;;;;;;;;4505725;28;20836;-63
2022/07/09 06:13:12;;;;;;;2.38;2.08;;;;;;;;;;4506405;28;20033;-64
2022/07/09 06:15:22;;;;;;;3.08;2.10;;;;;;;;;;4488347;28;20490;-63
2022/07/09 06:17:33;;;;;;;2.63;1.90;;;;;;;;;;4505151;28;20037;-64
2022/07/09 06:19:43;;;;;;;2.45;1.85;;;;;;;;;;4506440;28;20029;-64
2022/07/09 06:21:54;;;;;;;2.70;2.28;;;;;;;;;;4507471;28;20065;-64
2022/07/09 06:24:05;;;;;;;2.60;1.83;;;;;;;;;;4505106;28;20037;-64
2022/07/09 06:26:16;;;;;;;2.58;1.60;;;;;;;;;;4491343;28;20034;-64
2022/07/09 06:28:26;;;;;;;2.13;1.67;;;;;;;;;;4505516;28;20026;-64
2022/07/09 06:30:37;;;;;;;1.98;1.70;;;;;;;;;;4487996;28;20037;-64
2022/07/09 06:32:47;;;;;;;2.55;2.13;;;;;;;;;;4505674;28;20459;-63
2022/07/09 06:34:58;;;;;;;2.22;1.90;;;;;;;;;;4504862;28;20045;-64
2022/07/09 06:37:08;;;;;;;2.08;1.55;;;;;;;;;;4506157;28;20038;-63
2022/07/09 06:41:47;;;;;;;1.70;1.50;;;;;;;;;;4503507;28;20037;-63
2022/07/09 06:43:58;;;;;;;2.10;1.70;;;;;;;;;;4506685;28;20037;-63
2022/07/09 06:46:08;;;;;;;2.80;1.95;;;;;;;;;;4488051;28;20085;-63
2022/07/09 06:48:19;;;;;;;2.40;1.90;;;;;;;;;;4505214;28;20030;-62
2022/07/09 06:50:29;;;;;;;2.10;1.80;;;;;;;;;;4505207;28;20521;-63
2022/07/09 06:52:40;;;;;;;3.25;2.42;;;;;;;;;;4503972;28;20087;-63
2022/07/09 06:54:50;;;;;;;2.65;1.90;;;;;;;;;;4505215;28;20053;-63
2022/07/09 06:57:01;;;;;;;3.30;1.95;;;;;;;;;;4504973;28;20022;-63
2022/07/09 06:59:12;;;;;;;2.25;1.75;;;;;;;;;;4506055;28;20037;-63
2022/07/09 07:01:23;;;;;;;3.08;2.10;;;;;;;;;;4489753;28;20034;-63
2022/07/09 07:03:33;;;;;;;2.55;1.88;;;;;;;;;;4506101;28;20049;-63
2022/07/09 07:05:44;;;;;;;4.03;2.40;;;;;;;;;;4491699;28;20160;-63
2022/07/09 07:07:54;;;;;;;3.08;2.30;;;;;;;;;;4506184;28;20152;-63
2022/07/09 07:10:05;;;;;;;2.00;1.52;;;;;;;;;;4504375;28;20038;-63
2022/07/09 07:12:15;;;;;;;2.67;1.83;;;;;;;;;;4487517;28;20034;-62
2022/07/09 07:14:26;;;;;;;1.92;1.48;;;;;;;;;;4504359;28;20060;-63
2022/07/09 07:16:36;;;;;;;3.20;1.80;;;;;;;;;;4485295;28;20034;-63
2022/07/09 07:18:47;;;;;;;2.05;1.70;;;;;;;;;;4503881;28;20120;-63
2022/07/09 07:20:57;;;;;;;2.75;1.88;;;;;;;;;;4506193;28;20041;-63
2022/07/09 07:23:07;;;;;;;1.67;1.58;;;;;;;;;;4508769;28;20034;-63
2022/07/09 07:25:18;;;;;;;1.67;1.48;;;;;;;;;;4508714;28;20503;-63
2022/07/09 07:27:28;;;;;;;2.25;1.70;;;;;;;;;;4477106;28;20065;-62
2022/07/09 07:29:39;;;;;;;2.15;1.67;;;;;;;;;;4506960;28;20038;-63
2022/07/09 07:31:49;;;;;;;1.70;1.50;;;;;;;;;;4482690;28;20033;-63
2022/07/09 07:34:00;;;;;;;1.60;1.42;;;;;;;;;;4490641;28;20114;-63
2022/07/09 07:36:10;;;;;;;1.70;1.40;;;;;;;;;;4507576;28;20057;-62
2022/07/09 07:38:22;;;;;;;2.03;1.60;;;;;;;;;;4491991;28;20034;-63
2022/07/09 07:40:32;;;;;;;2.53;1.70;;;;;;;;;;4509048;28;20589;-62
2022/07/09 07:42:43;;;;;;;1.65;1.45;;;;;;;;;;4481377;28;20038;-62
2022/07/09 07:44:53;;;;;;;1.77;1.52;;;;;;;;;;4507662;28;20086;-63
2022/07/09 07:47:04;;;;;;;2.50;2.20;;;;;;;;;;4505993;28;20018;-62
2022/07/09 07:49:15;;;;;;;1.80;1.60;;;;;;;;;;4489634;28;20488;-62
2022/07/09 07:51:25;;;;;;;1.58;1.42;;;;;;;;;;4490716;28;20038;-61
2022/07/09 07:53:36;;;;;;;2.38;1.65;;;;;;;;;;4477551;28;20085;-62
2022/07/09 07:55:47;;;;;;;2.63;2.17;;;;;;;;;;4506677;28;20501;-62
2022/07/09 07:57:57;;;;;;;2.83;1.63;;;;;;;;;;4507666;28;20585;-62
2022/07/09 08:00:08;;;;;;;2.33;1.75;;;;;;;;;;4489952;28;20563;-62
2022/07/09 08:02:22;;;;;;;2.30;1.70;;;;;;;;;;4492140;28;21129;-62
2022/07/09 08:04:32;;;;;;;2.42;1.90;;;;;;;;;;4507220;28;20083;-62
2022/07/09 08:06:43;;;;;;;2.35;1.90;;;;;;;;;;4507948;28;20121;-63
2022/07/09 08:08:53;;;;;;;3.28;2.20;;;;;;;;;;4488980;28;20034;-62
2022/07/09 08:11:04;;;;;;;2.63;1.95;;;;;;;;;;4490392;28;20090;-62
2022/07/09 08:13:18;;;;;;;2.55;1.80;;;;;;;;;;4507360;28;20448;-62
2022/07/09 08:15:29;;;;;;;1.92;1.73;;;;;;;;;;4508689;28;20604;-63
2022/07/09 08:17:40;;;;;;;2.50;1.80;;;;;;;;;;4494120;28;20037;-63
2022/07/09 08:19:51;;;;;;;2.13;1.70;;;;;;;;;;4507003;28;20021;-62
2022/07/09 08:22:03;;;;;;;2.22;1.88;;;;;;;;;;4507120;28;20033;-70
2022/07/09 08:24:13;;;;;;;2.20;1.70;;;;;;;;;;4480901;28;20809;-71
2022/07/09 08:26:24;;;;;;;1.52;1.40;;;;;;;;;;4507258;28;20038;-69
2022/07/09 08:28:35;;;;;;;1.83;1.58;;;;;;;;;;4489933;28;20039;-71
2022/07/09 08:30:45;;;;;;;2.05;1.63;;;;;;;;;;4506755;28;20033;-67
2022/07/09 08:32:56;;;;;;;1.83;1.58;;;;;;;;;;4471019;28;20405;-68
2022/07/09 08:35:07;;;;;;;2.08;1.88;;;;;;;;;;4490946;28;20050;-68
2022/07/09 08:37:17;;;;;;;2.08;1.60;;;;;;;;;;4508377;28;20793;-68
2022/07/09 08:39:28;;;;;;;2.10;1.63;;;;;;;;;;4507374;28;20030;-68
2022/07/09 08:41:38;;;;;;;1.77;1.60;;;;;;;;;;4508586;28;20049;-67
2022/07/09 08:43:53;;;;;;;1.95;1.40;;;;;;;;;;4491980;28;20518;-68
2022/07/09 08:46:04;;;;;;;2.45;1.63;;;;;;;;;;4508475;28;20595;-67
2022/07/09 08:48:15;;;;;;;1.80;1.60;;;;;;;;;;4507583;28;20829;-67
2022/07/09 08:50:25;;;;;;;1.73;1.48;;;;;;;;;;4489149;28;20026;-67
2022/07/09 08:52:36;;;;;;;2.03;1.45;;;;;;;;;;4477063;28;20026;-67
2022/07/09 08:54:47;;;;;;;2.20;1.10;;;;;;;;;;4509123;28;20041;-67
2022/07/09 08:56:58;;;;;;;1.88;1.40;;;;;;;;;;4506141;28;20034;-68
2022/07/09 08:59:09;;;;;;;1.58;1.30;;;;;;;;;;4493879;28;20072;-67
2022/07/09 09:01:20;;;;;;;1.85;1.45;;;;;;;;;;4507857;28;20096;-67
2022/07/09 09:03:30;;;;;;;1.55;1.23;;;;;;;;;;4506917;28;20068;-67
2022/07/09 09:05:41;;;;;;;2.83;1.88;;;;;;;;;;4508562;28;20021;-67
2022/07/09 09:07:51;;;;;;;1.20;1.10;;;;;;;;;;4505992;28;20038;-68
2022/07/09 09:10:02;;;;;;;1.60;1.30;;;;;;;;;;4491753;28;20034;-67
2022/07/09 09:12:13;;;;;;;1.50;1.20;;;;;;;;;;4507531;28;20093;-67
2022/07/09 09:14:25;;;;;;;2.25;1.50;;;;;;;;;;4506819;28;20037;-67
2022/07/09 09:16:42;;;;;;;2.65;1.40;;;;;;;;;;4507782;28;20034;-67
2022/07/09 09:18:53;;;;;;;1.55;1.10;;;;;;;;;;4507183;28;21020;-67
2022/07/09 09:21:05;;;;;;;1.20;1.10;;;;;;;;;;4507904;28;20037;-68
2022/07/09 09:23:16;;;;;;;1.50;1.10;;;;;;;;;;4489412;28;20022;-69
2022/07/09 09:25:27;;;;;;;1.38;1.20;;;;;;;;;;4508653;28;20034;-68
2022/07/09 09:27:38;;;;;;;1.75;1.00;;;;;;;;;;4505838;28;20032;-67
2022/07/09 09:29:50;;;;;;;1.20;0.93;;;;;;;;;;4489737;28;20042;-67
2022/07/09 09:32:09;;;;;;;1.40;1.30;;;;;;;;;;4506588;28;20038;-68
2022/07/09 09:34:20;;;;;;;1.35;1.17;;;;;;;;;;4492261;28;20034;-68
2022/07/09 09:36:33;;;;;;;2.50;1.20;;;;;;;;;;4506574;28;21274;-68
2022/07/09 09:38:43;;;;;;;1.65;1.10;;;;;;;;;;4507194;28;20100;-68
2022/07/09 09:40:54;;;;;;;1.58;1.15;;;;;;;;;;4505712;28;20116;-68
2022/07/09 09:43:04;;;;;;;1.50;1.20;;;;;;;;;;4498278;28;20099;-68
2022/07/09 09:45:16;;;;;;;1.48;1.10;;;;;;;;;;4476734;28;20126;-67
2022/07/09 09:47:27;;;;;;;1.38;1.20;;;;;;;;;;4507286;28;20088;-68
2022/07/09 09:49:38;;;;;;;1.33;1.15;;;;;;;;;;4493074;28;20057;-68
2022/07/09 09:52:07;;;;;;;1.63;1.17;;;;;;;;;;4494615;28;20480;-68
2022/07/09 09:54:19;;;;;;;1.80;1.25;;;;;;;;;;4493123;28;20049;-68
2022/07/09 09:56:31;;;;;;;1.30;1.00;;;;;;;;;;4492250;28;20648;-68
2022/07/09 09:58:42;;;;;;;1.63;1.23;;;;;;;;;;4505477;28;20035;-67
2022/07/09 10:00:52;;;;;;;1.42;1.10;;;;;;;;;;4492527;28;20062;-68
2022/07/09 10:03:03;;;;;;;1.60;1.10;;;;;;;;;;4505329;28;20180;-67
2022/07/09 10:05:14;;;;;;;1.45;1.10;;;;;;;;;;4506738;28;20088;-68
2022/07/09 10:07:24;;;;;;;0.80;0.80;;;;;;;;;;4506286;28;20030;-68
2022/07/09 10:09:34;;;;;;;0.80;0.80;;;;;;;;;;4507294;28;21582;-69
2022/07/09 10:11:47;;;;;;;0.82;0.63;;;;;;;;;;4480833;28;20062;-70
2022/07/09 10:13:57;;;;;;;0.65;0.63;;;;;;;;;;4505816;28;20153;-69
2022/07/09 10:16:08;;;;;;;1.00;0.70;;;;;;;;;;4507436;28;20957;-68
2022/07/09 10:18:19;;;;;;;0.80;0.70;;;;;;;;;;4506865;28;20056;-69
2022/07/09 10:20:33;;;;;;;1.63;0.80;;;;;;;;;;4490935;28;20101;-68
2022/07/09 10:22:45;;;;;;;1.45;0.80;;;;;;;;;;4507133;28;20615;-69
2022/07/09 10:24:56;;;;;;;1.05;0.70;;;;;;;;;;4491295;28;20029;-68
2022/07/09 10:27:10;;;;;;;0.60;0.60;;;;;;;;;;4504534;28;20049;-69
2022/07/09 10:29:26;;;;;;;0.70;0.70;;;;;;;;;;4506010;28;20113;-68
2022/07/09 10:31:36;;;;;;;0.60;0.60;;;;;;;;;;4488779;28;20154;-69
2022/07/09 10:34:03;;;;;;;0.98;0.70;;;;;;;;;;4488323;28;20038;-69
2022/07/09 10:36:15;;;;;;;0.60;0.60;;;;;;;;;;4488463;28;20125;-69
2022/07/09 10:38:34;;;;;;;0.73;0.65;;;;;;;;;;4497462;28;20116;-69
2022/07/09 10:40:46;;;;;;;1.67;0.70;;;;;;;;;;4506317;28;20044;-69
2022/07/09 10:43:02;;;;;;;0.68;0.52;;;;;;;;;;4506314;28;20318;-68
2022/07/09 10:45:18;;;;;;;0.55;0.55;;;;;;;;;;4505870;28;20088;-68
2022/07/09 10:47:53;;;;;;;0.93;0.60;;;;;;;;;;4506440;28;20088;-69
2022/07/09 10:50:04;;;;;;;0.93;0.60;;;;;;;;;;4493261;28;20624;-68
2022/07/09 10:52:15;;;;;;;0.68;0.60;;;;;;;;;;4491331;28;20020;-69
2022/07/09 10:54:26;;;;;;;0.60;0.55;;;;;;;;;;4505539;28;20037;-68
2022/07/09 10:56:37;;;;;;;0.70;0.70;;;;;;;;;;4506549;28;20055;-68
2022/07/09 10:58:50;;;;;;;1.08;0.80;;;;;;;;;;4509390;28;20607;-68
2022/07/09 11:01:04;;;;;;;0.77;0.77;;;;;;;;;;4490146;28;20645;-68
2022/07/09 11:03:14;;;;;;;1.63;1.13;;;;;;;;;;4484236;28;20049;-69
2022/07/09 11:05:30;;;;;;;0.80;0.80;;;;;;;;;;4509196;28;20038;-68
2022/07/09 11:07:41;;;;;;;0.82;0.70;;;;;;;;;;4510145;28;20189;-68
2022/07/09 11:09:52;;;;;;;0.70;0.70;;;;;;;;;;4477787;28;20053;-69
2022/07/09 11:12:03;;;;;;;1.23;0.85;;;;;;;;;;4492451;28;20696;-68
2022/07/09 11:14:14;;;;;;;0.80;0.70;;;;;;;;;;4494851;28;20186;-68
2022/07/09 11:16:25;;;;;;;0.93;0.70;;;;;;;;;;4490543;28;20046;-68
2022/07/09 11:18:35;;;;;;;0.80;0.80;;;;;;;;;;4508885;28;21257;-69
2022/07/09 11:20:46;;;;;;;0.63;0.60;;;;;;;;;;4507240;28;20033;-70
2022/07/09 11:22:59;;;;;;;0.65;0.60;;;;;;;;;;4493230;28;20041;-68
2022/07/09 11:25:10;;;;;;;0.80;0.80;;;;;;;;;;4508979;28;20607;-68
2022/07/09 11:27:20;;;;;;;0.88;0.70;;;;;;;;;;4491311;28;20030;-68
2022/07/09 11:29:31;;;;;;;0.70;0.70;;;;;;;;;;4490606;28;20121;-68
2022/07/09 11:31:51;;;;;;;1.17;0.75;;;;;;;;;;4482098;28;20034;-67
2022/07/09 11:34:11;;;;;;;0.93;0.73;;;;;;;;;;4509066;28;20034;-67
2022/07/09 11:36:21;;;;;;;1.20;0.90;;;;;;;;;;4494290;28;20042;-67
2022/07/09 11:38:32;;;;;;;1.13;0.80;;;;;;;;;;4509072;28;20038;-66
2022/07/09 11:40:42;;;;;;;0.75;0.70;;;;;;;;;;4508558;28;20057;-66
2022/07/09 11:42:53;;;;;;;0.82;0.60;;;;;;;;;;4484292;28;20045;-67
2022/07/09 11:45:04;;;;;;;0.80;0.80;;;;;;;;;;4491045;28;20053;-67
2022/07/09 11:47:17;;;;;;;1.77;1.00;;;;;;;;;;4507874;28;20026;-67
2022/07/09 11:49:35;;;;;;;0.77;0.73;;;;;;;;;;4507531;28;20104;-67
2022/07/09 11:51:45;;;;;;;1.17;0.90;;;;;;;;;;4508252;28;20237;-67
2022/07/09 11:53:56;;;;;;;1.40;0.95;;;;;;;;;;4490982;28;20161;-67
2022/07/09 11:56:07;;;;;;;1.25;1.02;;;;;;;;;;4491478;28;20042;-67
2022/07/09 11:58:17;;;;;;;1.02;0.82;;;;;;;;;;4509812;28;20037;-68
2022/07/09 12:00:29;;;;;;;1.52;0.90;;;;;;;;;;4508837;28;20038;-67
2022/07/09 12:02:40;;;;;;;1.27;0.80;;;;;;;;;;4494864;28;21232;-67
2022/07/09 12:04:50;;;;;;;1.00;0.80;;;;;;;;;;4509346;28;20041;-68
2022/07/09 12:07:01;;;;;;;1.10;0.80;;;;;;;;;;4508105;28;20103;-67
2022/07/09 12:09:11;;;;;;;1.23;0.80;;;;;;;;;;4489609;28;20134;-68
2022/07/09 12:11:31;;;;;;;0.90;0.90;;;;;;;;;;4508391;28;20026;-68
2022/07/09 12:13:42;;;;;;;1.20;0.80;;;;;;;;;;4508196;28;20056;-68
2022/07/09 12:15:52;;;;;;;1.80;0.90;;;;;;;;;;4493128;28;20056;-67
2022/07/09 12:18:02;;;;;;;1.65;1.02;;;;;;;;;;4488713;28;20603;-67
2022/07/09 12:20:13;;;;;;;1.10;1.00;;;;;;;;;;4507498;28;20077;-67
2022/07/09 12:22:24;;;;;;;1.08;0.90;;;;;;;;;;4493425;28;20441;-68
2022/07/09 12:24:34;;;;;;;2.00;1.30;;;;;;;;;;4491190;28;20035;-67
2022/07/09 12:26:45;;;;;;;1.42;1.08;;;;;;;;;;4508960;28;20501;-67
2022/07/09 12:28:55;;;;;;;1.40;1.17;;;;;;;;;;4510009;28;20040;-68
2022/07/09 12:31:06;;;;;;;1.33;1.00;;;;;;;;;;4506187;28;20382;-68
2022/07/09 12:33:16;;;;;;;1.38;1.00;;;;;;;;;;4507694;28;20061;-68
2022/07/09 12:35:27;;;;;;;1.10;1.00;;;;;;;;;;4493792;28;20038;-68
2022/07/09 12:37:38;;;;;;;1.23;1.10;;;;;;;;;;4499470;28;20038;-67
2022/07/09 12:39:49;;;;;;;1.25;0.95;;;;;;;;;;4494098;28;20198;-67
2022/07/09 12:41:59;;;;;;;1.40;1.20;;;;;;;;;;4508363;28;20049;-67
2022/07/09 12:44:10;;;;;;;1.23;1.08;;;;;;;;;;4508406;28;20092;-67
2022/07/09 12:46:21;;;;;;;1.20;1.10;;;;;;;;;;4506300;28;20104;-67
2022/07/09 12:48:31;;;;;;;1.35;1.25;;;;;;;;;;4492391;28;20049;-67
2022/07/09 12:50:42;;;;;;;1.48;1.20;;;;;;;;;;4506804;28;20587;-67
2022/07/09 12:52:52;;;;;;;1.52;1.27;;;;;;;;;;4506658;28;20068;-68
2022/07/09 12:55:03;;;;;;;1.70;1.30;;;;;;;;;;4507477;28;20329;-68
2022/07/09 12:57:14;;;;;;;1.63;1.23;;;;;;;;;;4507409;28;21241;-68
2022/07/09 12:59:24;;;;;;;1.60;1.33;;;;;;;;;;4492933;28;20100;-67
2022/07/09 13:01:35;;;;;;;1.13;1.02;;;;;;;;;;4491539;28;20085;-67
2022/07/09 13:03:46;;;;;;;1.63;1.20;;;;;;;;;;4495814;28;20026;-67
2022/07/09 13:05:56;;;;;;;2.22;1.25;;;;;;;;;;4508331;28;20117;-67
2022/07/09 13:08:07;;;;;;;1.83;1.10;;;;;;;;;;4507805;28;20061;-68